TimeCDT,TemperatureF,Dew PointF,Humidity,Sea Level PressureIn,VisibilityMPH,Wind Direction,Wind SpeedMPH,Gust SpeedMPH,PrecipitationIn,Events,Conditions,WindDirDegrees,DateUTC
12:15 AM,61.2,53.6,76,30.10,10.0,NE,4.6,-,N/A,,Overcast,40,2012-10-11 05:15:00
12:35 AM,61.7,53.6,75,30.09,10.0,NNE,3.5,-,N/A,,Mostly Cloudy,30,2012-10-11 05:35:00
1:35 AM,60.4,54.0,79,30.09,10.0,Calm,Calm,-,N/A,,Scattered Clouds,0,2012-10-11 06:35:00
1:55 AM,60.3,54.0,80,30.08,10.0,Calm,Calm,-,N/A,,Scattered Clouds,0,2012-10-11 06:55:00
2:15 AM,59.4,53.8,82,30.07,10.0,Calm,Calm,-,N/A,,Clear,0,2012-10-11 07:15:00
2:35 AM,59.4,53.8,82,30.07,10.0,Calm,Calm,-,N/A,,Clear,0,2012-10-11 07:35:00
2:55 AM,59.2,54.0,83,30.07,10.0,Calm,Calm,-,N/A,,Clear,0,2012-10-11 07:55:00
3:15 AM,58.6,53.8,84,30.07,10.0,Calm,Calm,-,N/A,,Clear,0,2012-10-11 08:15:00
3:35 AM,58.1,53.2,84,30.06,10.0,Calm,Calm,-,N/A,,Clear,0,2012-10-11 08:35:00
3:55 AM,57.4,52.9,85,30.06,10.0,Calm,Calm,-,N/A,,Clear,0,2012-10-11 08:55:00
4:15 AM,57.2,52.7,85,30.05,10.0,Calm,Calm,-,N/A,,Clear,0,2012-10-11 09:15:00
4:35 AM,58.1,53.6,85,30.05,10.0,Calm,Calm,-,N/A,,Clear,0,2012-10-11 09:35:00
4:55 AM,57.2,52.7,85,30.05,10.0,ENE,3.5,-,N/A,,Clear,60,2012-10-11 09:55:00
5:15 AM,56.8,52.7,86,30.05,10.0,Calm,Calm,-,N/A,,Clear,0,2012-10-11 10:15:00
5:35 AM,54.9,51.8,89,30.05,7.0,NW,3.5,-,N/A,,Clear,310,2012-10-11 10:35:00
5:55 AM,55.0,52.0,89,30.05,7.0,NW,3.5,-,N/A,,Clear,310,2012-10-11 10:55:00
6:15 AM,54.9,52.0,90,30.06,7.0,NW,4.6,-,N/A,,Clear,320,2012-10-11 11:15:00
6:35 AM,54.5,51.8,91,30.06,7.0,WNW,3.5,-,N/A,,Clear,290,2012-10-11 11:35:00
7:15 AM,54.9,52.0,90,30.07,7.0,NW,4.6,-,N/A,,Scattered Clouds,320,2012-10-11 12:15:00
7:55 AM,55.9,53.1,90,30.07,7.0,Calm,Calm,-,N/A,,Overcast,0,2012-10-11 12:55:00
8:15 AM,56.7,53.6,89,30.08,5.0,WNW,4.6,-,N/A,,Mostly Cloudy,300,2012-10-11 13:15:00
8:35 AM,56.7,53.6,89,30.07,5.0,Calm,Calm,-,N/A,,Scattered Clouds,0,2012-10-11 13:35:00
8:55 AM,57.2,53.6,88,30.08,7.0,Calm,Calm,-,N/A,,Scattered Clouds,0,2012-10-11 13:55:00
9:15 AM,58.5,54.5,87,30.09,7.0,West,3.5,-,N/A,,Clear,260,2012-10-11 14:15:00
9:35 AM,60.4,55.4,83,30.10,7.0,Calm,Calm,-,N/A,,Clear,0,2012-10-11 14:35:00
9:55 AM,61.0,55.4,82,30.10,10.0,Calm,Calm,-,N/A,,Clear,0,2012-10-11 14:55:00
10:15 AM,63.1,56.3,78,30.11,10.0,Calm,Calm,-,N/A,,Clear,0,2012-10-11 15:15:00
10:35 AM,63.7,56.5,77,30.11,10.0,Calm,Calm,-,N/A,,Clear,0,2012-10-11 15:35:00
10:55 AM,65.3,56.5,73,30.11,10.0,Calm,Calm,-,N/A,,Clear,0,2012-10-11 15:55:00
11:15 AM,65.7,56.8,73,30.11,10.0,Calm,Calm,-,N/A,,Clear,0,2012-10-11 16:15:00
11:35 AM,66.6,57.0,71,30.11,10.0,Calm,Calm,-,N/A,,Clear,0,2012-10-11 16:35:00
11:55 AM,69.1,57.7,67,30.10,10.0,SW,3.5,-,N/A,,Clear,220,2012-10-11 16:55:00
12:15 PM,69.8,57.4,65,30.10,10.0,South,4.6,-,N/A,,Clear,170,2012-10-11 17:15:00
12:35 PM,72.5,57.9,60,30.09,10.0,SSW,3.5,-,N/A,,Clear,210,2012-10-11 17:35:00
12:55 PM,73.8,58.1,58,30.08,10.0,SW,3.5,-,N/A,,Clear,230,2012-10-11 17:55:00
1:15 PM,76.3,57.7,53,30.07,10.0,ESE,6.9,-,N/A,,Clear,120,2012-10-11 18:15:00
1:55 PM,78.4,58.1,50,30.05,10.0,SE,5.8,-,N/A,,Clear,140,2012-10-11 18:55:00
2:15 PM,78.1,58.3,50,30.03,10.0,ESE,4.6,-,N/A,,Clear,120,2012-10-11 19:15:00
2:35 PM,79.7,57.7,47,30.02,10.0,ESE,5.8,-,N/A,,Clear,120,2012-10-11 19:35:00
2:55 PM,81.0,57.4,44,30.01,10.0,Calm,Calm,-,N/A,,Clear,0,2012-10-11 19:55:00
3:15 PM,81.9,57.7,44,30.00,10.0,Calm,Calm,-,N/A,,Clear,0,2012-10-11 20:15:00
3:35 PM,84.4,57.7,40,29.99,10.0,East,4.6,-,N/A,,Clear,80,2012-10-11 20:35:00
3:55 PM,85.6,58.5,40,29.98,10.0,East,8.1,-,N/A,,Clear,90,2012-10-11 20:55:00
4:35 PM,88.0,57.4,35,29.97,10.0,East,11.5,16.1,N/A,,Clear,90,2012-10-11 21:35:00
4:55 PM,88.2,57.9,36,29.97,10.0,East,10.4,-,N/A,,Clear,80,2012-10-11 21:55:00
5:15 PM,88.5,57.2,34,29.97,10.0,East,10.4,-,N/A,,Clear,80,2012-10-11 22:15:00
6:15 PM,87.1,58.6,38,29.95,10.0,East,15.0,-,N/A,,Clear,80,2012-10-11 23:15:00
6:35 PM,85.8,58.8,40,29.95,10.0,East,15.0,-,N/A,,Clear,80,2012-10-11 23:35:00
6:55 PM,84.4,59.7,43,29.95,10.0,ENE,15.0,-,N/A,,Clear,70,2012-10-11 23:55:00
7:15 PM,82.6,59.9,46,29.96,10.0,East,11.5,-,N/A,,Clear,80,2012-10-12 00:15:00
7:35 PM,80.8,59.5,48,29.97,10.0,ENE,11.5,-,N/A,,Clear,70,2012-10-12 00:35:00
7:55 PM,79.7,60.6,52,29.97,10.0,East,12.7,-,N/A,,Clear,80,2012-10-12 00:55:00
8:15 PM,78.6,62.1,57,29.98,10.0,East,16.1,19.6,N/A,,Clear,90,2012-10-12 01:15:00
8:55 PM,77.4,63.7,63,29.99,10.0,East,16.1,23.0,N/A,,Clear,90,2012-10-12 01:55:00
9:15 PM,76.5,64.0,65,30.00,10.0,East,17.3,20.7,N/A,,Clear,100,2012-10-12 02:15:00
9:35 PM,75.7,64.2,67,30.01,10.0,ESE,15.0,-,N/A,,Clear,110,2012-10-12 02:35:00
9:55 PM,75.2,64.2,69,30.02,10.0,ESE,15.0,-,N/A,,Clear,110,2012-10-12 02:55:00
10:15 PM,74.5,63.9,69,30.03,10.0,ESE,15.0,-,N/A,,Clear,110,2012-10-12 03:15:00
10:55 PM,73.6,63.7,71,30.04,10.0,East,13.8,-,N/A,,Clear,100,2012-10-12 03:55:00
11:15 PM,73.2,63.7,72,30.04,10.0,East,12.7,-,N/A,,Clear,100,2012-10-12 04:15:00